sensor_id;sensor_type;location;lat;lon;timestamp;P1;durP1;ratioP1;P2;durP2;ratioP2
65077;SDS011;51672;51.230;-2.322;2023-02-04T00:03:41;5.45;;;0.88;;
65077;SDS011;51672;51.230;-2.322;2023-02-04T00:07:23;4.00;;;1.00;;
65077;SDS011;51672;51.230;-2.322;2023-02-04T00:11:05;3.75;;;0.70;;
65077;SDS011;51672;51.230;-2.322;2023-02-04T00:14:47;5.18;;;1.02;;
65077;SDS011;51672;51.230;-2.322;2023-02-04T00:18:29;4.75;;;0.85;;
65077;SDS011;51672;51.230;-2.322;2023-02-04T00:22:11;4.22;;;0.75;;
65077;SDS011;51672;51.230;-2.322;2023-02-04T00:25:53;4.70;;;1.05;;
65077;SDS011;51672;51.230;-2.322;2023-02-04T00:29:35;6.10;;;0.85;;
65077;SDS011;51672;51.230;-2.322;2023-02-04T00:33:17;4.80;;;0.93;;
65077;SDS011;51672;51.230;-2.322;2023-02-04T00:36:59;8.00;;;0.93;;
65077;SDS011;51672;51.230;-2.322;2023-02-04T00:40:41;6.05;;;1.00;;
65077;SDS011;51672;51.230;-2.322;2023-02-04T00:44:23;3.63;;;0.50;;
65077;SDS011;51672;51.230;-2.322;2023-02-04T00:48:05;4.32;;;0.70;;
65077;SDS011;51672;51.230;-2.322;2023-02-04T00:51:47;5.35;;;0.77;;
65077;SDS011;51672;51.230;-2.322;2023-02-04T00:55:29;4.25;;;0.55;;
65077;SDS011;51672;51.230;-2.322;2023-02-04T00:59:11;3.38;;;0.40;;
65077;SDS011;51672;51.230;-2.322;2023-02-04T01:02:53;8.80;;;1.05;;
65077;SDS011;51672;51.230;-2.322;2023-02-04T01:06:35;4.35;;;0.70;;
65077;SDS011;51672;51.230;-2.322;2023-02-04T01:10:18;2.93;;;0.47;;
65077;SDS011;51672;51.230;-2.322;2023-02-04T01:14:00;4.45;;;0.60;;
65077;SDS011;51672;51.230;-2.322;2023-02-04T01:17:42;3.50;;;0.80;;
65077;SDS011;51672;51.230;-2.322;2023-02-04T01:21:24;3.63;;;0.53;;
65077;SDS011;51672;51.230;-2.322;2023-02-04T01:25:06;4.72;;;0.80;;
65077;SDS011;51672;51.230;-2.322;2023-02-04T01:28:49;7.63;;;1.00;;
65077;SDS011;51672;51.230;-2.322;2023-02-04T01:32:31;3.95;;;0.80;;
65077;SDS011;51672;51.230;-2.322;2023-02-04T01:36:13;3.05;;;0.63;;
65077;SDS011;51672;51.230;-2.322;2023-02-04T01:39:56;4.47;;;0.68;;
65077;SDS011;51672;51.230;-2.322;2023-02-04T01:43:38;4.60;;;0.80;;
65077;SDS011;51672;51.230;-2.322;2023-02-04T01:47:20;4.73;;;0.80;;
65077;SDS011;51672;51.230;-2.322;2023-02-04T01:51:05;6.50;;;0.88;;
65077;SDS011;51672;51.230;-2.322;2023-02-04T01:54:51;4.90;;;0.77;;
65077;SDS011;51672;51.230;-2.322;2023-02-04T01:58:34;6.37;;;0.90;;
65077;SDS011;51672;51.230;-2.322;2023-02-04T02:06:37;5.72;;;0.80;;
65077;SDS011;51672;51.230;-2.322;2023-02-04T02:10:21;4.07;;;0.50;;
65077;SDS011;51672;51.230;-2.322;2023-02-04T02:14:04;3.92;;;0.70;;
65077;SDS011;51672;51.230;-2.322;2023-02-04T02:17:46;3.25;;;0.50;;
65077;SDS011;51672;51.230;-2.322;2023-02-04T02:21:51;4.40;;;0.80;;
65077;SDS011;51672;51.230;-2.322;2023-02-04T02:25:37;5.53;;;0.87;;
65077;SDS011;51672;51.230;-2.322;2023-02-04T02:29:19;7.30;;;1.02;;
65077;SDS011;51672;51.230;-2.322;2023-02-04T02:33:02;7.07;;;1.02;;
65077;SDS011;51672;51.230;-2.322;2023-02-04T02:36:45;8.83;;;1.20;;
65077;SDS011;51672;51.230;-2.322;2023-02-04T02:40:26;3.20;;;0.80;;
65077;SDS011;51672;51.230;-2.322;2023-02-04T02:44:10;4.75;;;1.10;;
65077;SDS011;51672;51.230;-2.322;2023-02-04T02:47:55;5.80;;;1.20;;
65077;SDS011;51672;51.230;-2.322;2023-02-04T02:51:39;4.30;;;1.20;;
65077;SDS011;51672;51.230;-2.322;2023-02-04T02:55:22;7.22;;;0.90;;
65077;SDS011;51672;51.230;-2.322;2023-02-04T02:59:13;5.72;;;1.08;;
65077;SDS011;51672;51.230;-2.322;2023-02-04T03:02:57;5.07;;;0.90;;
65077;SDS011;51672;51.230;-2.322;2023-02-04T03:06:48;3.67;;;0.70;;
65077;SDS011;51672;51.230;-2.322;2023-02-04T03:10:31;5.63;;;0.75;;
65077;SDS011;51672;51.230;-2.322;2023-02-04T03:14:13;5.63;;;1.00;;
65077;SDS011;51672;51.230;-2.322;2023-02-04T03:17:56;4.18;;;0.77;;
65077;SDS011;51672;51.230;-2.322;2023-02-04T03:21:39;5.47;;;0.93;;
65077;SDS011;51672;51.230;-2.322;2023-02-04T03:25:22;6.35;;;1.30;;
65077;SDS011;51672;51.230;-2.322;2023-02-04T03:29:07;5.10;;;0.77;;
65077;SDS011;51672;51.230;-2.322;2023-02-04T03:32:50;6.32;;;1.42;;
65077;SDS011;51672;51.230;-2.322;2023-02-04T03:36:33;7.03;;;0.90;;
65077;SDS011;51672;51.230;-2.322;2023-02-04T03:40:15;7.00;;;1.03;;
65077;SDS011;51672;51.230;-2.322;2023-02-04T03:43:57;5.03;;;0.85;;
65077;SDS011;51672;51.230;-2.322;2023-02-04T03:47:39;5.13;;;0.90;;
65077;SDS011;51672;51.230;-2.322;2023-02-04T03:51:21;5.17;;;1.00;;
65077;SDS011;51672;51.230;-2.322;2023-02-04T03:55:03;3.97;;;0.77;;
65077;SDS011;51672;51.230;-2.322;2023-02-04T03:58:45;4.18;;;0.85;;
65077;SDS011;51672;51.230;-2.322;2023-02-04T04:02:27;7.45;;;1.00;;
65077;SDS011;51672;51.230;-2.322;2023-02-04T04:06:09;4.30;;;0.77;;
65077;SDS011;51672;51.230;-2.322;2023-02-04T04:09:51;5.72;;;1.17;;
65077;SDS011;51672;51.230;-2.322;2023-02-04T04:13:33;3.67;;;0.90;;
65077;SDS011;51672;51.230;-2.322;2023-02-04T04:17:15;8.30;;;1.17;;
65077;SDS011;51672;51.230;-2.322;2023-02-04T04:20:57;4.75;;;1.10;;
65077;SDS011;51672;51.230;-2.322;2023-02-04T04:24:39;6.03;;;1.02;;
65077;SDS011;51672;51.230;-2.322;2023-02-04T04:28:22;3.67;;;0.97;;
65077;SDS011;51672;51.230;-2.322;2023-02-04T04:32:04;5.30;;;1.00;;
65077;SDS011;51672;51.230;-2.322;2023-02-04T04:35:46;4.50;;;1.00;;
65077;SDS011;51672;51.230;-2.322;2023-02-04T04:39:28;4.25;;;1.15;;
65077;SDS011;51672;51.230;-2.322;2023-02-04T04:43:10;6.72;;;1.35;;
65077;SDS011;51672;51.230;-2.322;2023-02-04T04:46:52;5.28;;;1.33;;
65077;SDS011;51672;51.230;-2.322;2023-02-04T04:50:35;7.05;;;1.20;;
65077;SDS011;51672;51.230;-2.322;2023-02-04T04:54:17;6.07;;;1.30;;
65077;SDS011;51672;51.230;-2.322;2023-02-04T04:57:59;5.82;;;1.17;;
65077;SDS011;51672;51.230;-2.322;2023-02-04T05:01:41;6.03;;;1.60;;
65077;SDS011;51672;51.230;-2.322;2023-02-04T05:05:22;6.37;;;1.40;;
65077;SDS011;51672;51.230;-2.322;2023-02-04T05:09:04;4.90;;;1.38;;
65077;SDS011;51672;51.230;-2.322;2023-02-04T05:12:46;5.03;;;1.30;;
65077;SDS011;51672;51.230;-2.322;2023-02-04T05:16:28;9.93;;;1.60;;
65077;SDS011;51672;51.230;-2.322;2023-02-04T05:20:10;5.00;;;1.48;;
65077;SDS011;51672;51.230;-2.322;2023-02-04T05:23:53;6.32;;;1.30;;
65077;SDS011;51672;51.230;-2.322;2023-02-04T05:27:34;5.57;;;1.42;;
65077;SDS011;51672;51.230;-2.322;2023-02-04T05:31:16;5.03;;;1.50;;
65077;SDS011;51672;51.230;-2.322;2023-02-04T05:34:59;7.90;;;1.60;;
65077;SDS011;51672;51.230;-2.322;2023-02-04T05:38:41;4.75;;;1.45;;
65077;SDS011;51672;51.230;-2.322;2023-02-04T05:42:23;4.67;;;1.40;;
65077;SDS011;51672;51.230;-2.322;2023-02-04T05:46:04;5.85;;;1.60;;
65077;SDS011;51672;51.230;-2.322;2023-02-04T05:49:46;7.03;;;1.70;;
65077;SDS011;51672;51.230;-2.322;2023-02-04T05:53:29;6.15;;;1.67;;
65077;SDS011;51672;51.230;-2.322;2023-02-04T05:57:11;7.38;;;1.42;;
65077;SDS011;51672;51.230;-2.322;2023-02-04T06:00:53;5.35;;;1.50;;
65077;SDS011;51672;51.230;-2.322;2023-02-04T06:04:35;5.90;;;1.30;;
65077;SDS011;51672;51.230;-2.322;2023-02-04T06:08:17;5.97;;;1.60;;
65077;SDS011;51672;51.230;-2.322;2023-02-04T06:11:59;7.25;;;1.73;;
65077;SDS011;51672;51.230;-2.322;2023-02-04T06:15:41;6.13;;;1.67;;
65077;SDS011;51672;51.230;-2.322;2023-02-04T06:19:23;8.23;;;2.00;;
65077;SDS011;51672;51.230;-2.322;2023-02-04T06:23:05;8.00;;;1.90;;
65077;SDS011;51672;51.230;-2.322;2023-02-04T06:26:47;6.38;;;1.40;;
65077;SDS011;51672;51.230;-2.322;2023-02-04T06:30:29;5.43;;;1.10;;
65077;SDS011;51672;51.230;-2.322;2023-02-04T06:34:12;7.07;;;1.50;;
65077;SDS011;51672;51.230;-2.322;2023-02-04T06:37:54;5.30;;;1.50;;
65077;SDS011;51672;51.230;-2.322;2023-02-04T06:41:36;5.07;;;1.10;;
65077;SDS011;51672;51.230;-2.322;2023-02-04T06:45:18;7.47;;;1.50;;
65077;SDS011;51672;51.230;-2.322;2023-02-04T06:49:00;4.85;;;1.10;;
65077;SDS011;51672;51.230;-2.322;2023-02-04T06:52:42;5.25;;;1.20;;
65077;SDS011;51672;51.230;-2.322;2023-02-04T06:56:27;8.13;;;1.20;;
65077;SDS011;51672;51.230;-2.322;2023-02-04T07:00:10;4.22;;;1.02;;
65077;SDS011;51672;51.230;-2.322;2023-02-04T07:03:53;4.45;;;1.10;;
65077;SDS011;51672;51.230;-2.322;2023-02-04T07:07:35;5.57;;;1.33;;
65077;SDS011;51672;51.230;-2.322;2023-02-04T07:11:17;4.63;;;1.00;;
65077;SDS011;51672;51.230;-2.322;2023-02-04T07:14:59;4.97;;;0.90;;
65077;SDS011;51672;51.230;-2.322;2023-02-04T07:18:41;6.63;;;1.02;;
65077;SDS011;51672;51.230;-2.322;2023-02-04T07:22:23;5.10;;;0.73;;
65077;SDS011;51672;51.230;-2.322;2023-02-04T07:26:05;7.78;;;1.13;;
65077;SDS011;51672;51.230;-2.322;2023-02-04T07:29:47;9.95;;;1.00;;
65077;SDS011;51672;51.230;-2.322;2023-02-04T07:33:29;13.90;;;2.07;;
65077;SDS011;51672;51.230;-2.322;2023-02-04T07:37:11;8.93;;;0.90;;
65077;SDS011;51672;51.230;-2.322;2023-02-04T07:40:53;4.88;;;0.90;;
65077;SDS011;51672;51.230;-2.322;2023-02-04T07:44:35;6.65;;;0.85;;
65077;SDS011;51672;51.230;-2.322;2023-02-04T07:48:18;7.70;;;1.30;;
65077;SDS011;51672;51.230;-2.322;2023-02-04T07:52:00;11.05;;;1.13;;
65077;SDS011;51672;51.230;-2.322;2023-02-04T07:55:42;4.45;;;0.90;;
65077;SDS011;51672;51.230;-2.322;2023-02-04T07:59:24;11.07;;;1.37;;
65077;SDS011;51672;51.230;-2.322;2023-02-04T08:03:06;8.55;;;1.08;;
65077;SDS011;51672;51.230;-2.322;2023-02-04T08:06:49;5.53;;;0.93;;
65077;SDS011;51672;51.230;-2.322;2023-02-04T08:10:30;7.43;;;2.10;;
65077;SDS011;51672;51.230;-2.322;2023-02-04T08:14:13;12.02;;;1.45;;
65077;SDS011;51672;51.230;-2.322;2023-02-04T08:17:55;8.48;;;1.77;;
65077;SDS011;51672;51.230;-2.322;2023-02-04T08:21:48;7.70;;;1.52;;
65077;SDS011;51672;51.230;-2.322;2023-02-04T08:25:30;11.18;;;1.75;;
65077;SDS011;51672;51.230;-2.322;2023-02-04T08:33:25;7.28;;;1.42;;
65077;SDS011;51672;51.230;-2.322;2023-02-04T08:41:14;10.20;;;1.23;;
65077;SDS011;51672;51.230;-2.322;2023-02-04T08:49:06;9.73;;;1.07;;
65077;SDS011;51672;51.230;-2.322;2023-02-04T08:57:00;6.38;;;1.50;;
65077;SDS011;51672;51.230;-2.322;2023-02-04T09:04:54;6.15;;;1.70;;
65077;SDS011;51672;51.230;-2.322;2023-02-04T09:12:48;8.13;;;1.60;;
65077;SDS011;51672;51.230;-2.322;2023-02-04T09:20:46;5.85;;;1.63;;
65077;SDS011;51672;51.230;-2.322;2023-02-04T09:28:34;8.30;;;1.50;;
65077;SDS011;51672;51.230;-2.322;2023-02-04T09:40:57;5.88;;;1.60;;
65077;SDS011;51672;51.230;-2.322;2023-02-04T09:48:54;8.80;;;2.17;;
65077;SDS011;51672;51.230;-2.322;2023-02-04T09:56:44;7.43;;;2.47;;
65077;SDS011;51672;51.230;-2.322;2023-02-04T10:09:08;7.30;;;1.70;;
65077;SDS011;51672;51.230;-2.322;2023-02-04T10:13:31;9.27;;;1.70;;
65077;SDS011;51672;51.230;-2.322;2023-02-04T10:21:31;6.70;;;1.15;;
65077;SDS011;51672;51.230;-2.322;2023-02-04T10:25:42;6.80;;;1.50;;
65077;SDS011;51672;51.230;-2.322;2023-02-04T10:29:24;6.35;;;1.60;;
65077;SDS011;51672;51.230;-2.322;2023-02-04T10:37:20;6.73;;;1.30;;
65077;SDS011;51672;51.230;-2.322;2023-02-04T10:41:49;5.90;;;1.48;;
65077;SDS011;51672;51.230;-2.322;2023-02-04T10:49:50;6.43;;;1.70;;
65077;SDS011;51672;51.230;-2.322;2023-02-04T12:16:24;6.70;;;1.42;;
65077;SDS011;51672;51.230;-2.322;2023-02-04T12:24:11;4.53;;;1.48;;
65077;SDS011;51672;51.230;-2.322;2023-02-04T12:45:41;5.68;;;1.45;;
65077;SDS011;51672;51.230;-2.322;2023-02-04T12:58:06;7.95;;;2.00;;
65077;SDS011;51672;51.230;-2.322;2023-02-04T13:10:26;8.37;;;1.60;;
65077;SDS011;51672;51.230;-2.322;2023-02-04T13:22:54;6.70;;;1.80;;
65077;SDS011;51672;51.230;-2.322;2023-02-04T13:30:47;6.80;;;1.92;;
65077;SDS011;51672;51.230;-2.322;2023-02-04T14:00:04;7.00;;;1.85;;
65077;SDS011;51672;51.230;-2.322;2023-02-04T14:20:21;7.97;;;2.20;;
65077;SDS011;51672;51.230;-2.322;2023-02-04T14:32:32;9.60;;;2.20;;
65077;SDS011;51672;51.230;-2.322;2023-02-04T17:00:34;12.20;;;4.63;;
65077;SDS011;51672;51.230;-2.322;2023-02-04T17:12:30;11.85;;;5.28;;
65077;SDS011;51672;51.230;-2.322;2023-02-04T17:16:13;14.05;;;6.38;;
65077;SDS011;51672;51.230;-2.322;2023-02-04T17:19:56;15.65;;;6.50;;
65077;SDS011;51672;51.230;-2.322;2023-02-04T17:23:40;13.20;;;6.47;;
65077;SDS011;51672;51.230;-2.322;2023-02-04T17:27:23;16.60;;;6.43;;
65077;SDS011;51672;51.230;-2.322;2023-02-04T17:31:06;14.80;;;5.63;;
65077;SDS011;51672;51.230;-2.322;2023-02-04T17:34:48;13.93;;;5.32;;
65077;SDS011;51672;51.230;-2.322;2023-02-04T17:38:31;11.10;;;4.90;;
65077;SDS011;51672;51.230;-2.322;2023-02-04T17:42:13;14.57;;;5.27;;
65077;SDS011;51672;51.230;-2.322;2023-02-04T17:45:55;13.43;;;5.32;;
65077;SDS011;51672;51.230;-2.322;2023-02-04T17:49:37;12.63;;;5.13;;
65077;SDS011;51672;51.230;-2.322;2023-02-04T17:53:19;12.35;;;5.00;;
65077;SDS011;51672;51.230;-2.322;2023-02-04T17:57:10;13.93;;;5.60;;
65077;SDS011;51672;51.230;-2.322;2023-02-04T18:00:59;14.93;;;5.88;;
65077;SDS011;51672;51.230;-2.322;2023-02-04T18:04:41;14.07;;;6.22;;
65077;SDS011;51672;51.230;-2.322;2023-02-04T18:08:24;15.50;;;6.27;;
65077;SDS011;51672;51.230;-2.322;2023-02-04T18:12:12;16.38;;;6.68;;
65077;SDS011;51672;51.230;-2.322;2023-02-04T18:16:39;14.65;;;6.22;;
65077;SDS011;51672;51.230;-2.322;2023-02-04T18:20:14;15.57;;;5.90;;
65077;SDS011;51672;51.230;-2.322;2023-02-04T18:28:14;13.40;;;5.13;;
65077;SDS011;51672;51.230;-2.322;2023-02-04T18:36:40;14.00;;;6.40;;
65077;SDS011;51672;51.230;-2.322;2023-02-04T18:40:26;12.27;;;6.07;;
65077;SDS011;51672;51.230;-2.322;2023-02-04T18:52:00;12.27;;;4.68;;
65077;SDS011;51672;51.230;-2.322;2023-02-04T18:56:00;11.00;;;4.25;;
65077;SDS011;51672;51.230;-2.322;2023-02-04T18:59:42;13.27;;;5.00;;
65077;SDS011;51672;51.230;-2.322;2023-02-04T19:03:28;12.48;;;4.95;;
65077;SDS011;51672;51.230;-2.322;2023-02-04T19:07:12;15.52;;;5.47;;
65077;SDS011;51672;51.230;-2.322;2023-02-04T19:10:58;11.20;;;5.20;;
65077;SDS011;51672;51.230;-2.322;2023-02-04T19:14:43;14.23;;;5.30;;
65077;SDS011;51672;51.230;-2.322;2023-02-04T19:22:25;12.52;;;5.28;;
65077;SDS011;51672;51.230;-2.322;2023-02-04T19:26:33;12.83;;;5.40;;
65077;SDS011;51672;51.230;-2.322;2023-02-04T19:34:22;12.38;;;4.80;;
65077;SDS011;51672;51.230;-2.322;2023-02-04T19:42:31;13.25;;;5.90;;
65077;SDS011;51672;51.230;-2.322;2023-02-04T19:46:20;16.08;;;6.47;;
65077;SDS011;51672;51.230;-2.322;2023-02-04T19:53:57;12.73;;;5.72;;
65077;SDS011;51672;51.230;-2.322;2023-02-04T19:57:44;15.85;;;5.95;;
65077;SDS011;51672;51.230;-2.322;2023-02-04T20:01:29;13.23;;;5.95;;
65077;SDS011;51672;51.230;-2.322;2023-02-04T20:05:18;14.43;;;6.87;;
65077;SDS011;51672;51.230;-2.322;2023-02-04T20:09:03;19.35;;;6.88;;
65077;SDS011;51672;51.230;-2.322;2023-02-04T20:12:57;12.02;;;6.10;;
65077;SDS011;51672;51.230;-2.322;2023-02-04T20:16:47;13.97;;;6.27;;
65077;SDS011;51672;51.230;-2.322;2023-02-04T20:20:34;13.48;;;6.38;;
65077;SDS011;51672;51.230;-2.322;2023-02-04T20:24:19;19.30;;;6.20;;
65077;SDS011;51672;51.230;-2.322;2023-02-04T20:28:09;15.85;;;5.90;;
65077;SDS011;51672;51.230;-2.322;2023-02-04T20:31:52;14.70;;;5.82;;
65077;SDS011;51672;51.230;-2.322;2023-02-04T20:43:19;11.60;;;5.63;;
65077;SDS011;51672;51.230;-2.322;2023-02-04T20:47:10;14.82;;;5.93;;
65077;SDS011;51672;51.230;-2.322;2023-02-04T20:50:59;14.82;;;6.53;;
65077;SDS011;51672;51.230;-2.322;2023-02-04T20:54:44;16.33;;;6.33;;
65077;SDS011;51672;51.230;-2.322;2023-02-04T20:58:33;14.40;;;5.70;;
65077;SDS011;51672;51.230;-2.322;2023-02-04T21:02:19;13.50;;;6.50;;
65077;SDS011;51672;51.230;-2.322;2023-02-04T21:10:09;12.88;;;5.13;;
65077;SDS011;51672;51.230;-2.322;2023-02-04T21:13:52;17.60;;;5.90;;
65077;SDS011;51672;51.230;-2.322;2023-02-04T21:17:34;13.25;;;5.75;;
65077;SDS011;51672;51.230;-2.322;2023-02-04T21:21:16;12.17;;;5.77;;
65077;SDS011;51672;51.230;-2.322;2023-02-04T21:25:00;13.98;;;6.32;;
65077;SDS011;51672;51.230;-2.322;2023-02-04T21:28:43;13.95;;;6.10;;
65077;SDS011;51672;51.230;-2.322;2023-02-04T21:32:25;16.47;;;6.30;;
65077;SDS011;51672;51.230;-2.322;2023-02-04T21:36:09;13.90;;;5.38;;
65077;SDS011;51672;51.230;-2.322;2023-02-04T21:45:22;14.20;;;5.77;;
65077;SDS011;51672;51.230;-2.322;2023-02-04T21:49:33;14.80;;;5.38;;
65077;SDS011;51672;51.230;-2.322;2023-02-04T21:59:42;18.48;;;8.93;;
65077;SDS011;51672;51.230;-2.322;2023-02-04T22:14:39;14.57;;;5.90;;
65077;SDS011;51672;51.230;-2.322;2023-02-04T22:19:27;13.63;;;5.30;;
65077;SDS011;51672;51.230;-2.322;2023-02-04T22:29:08;13.35;;;4.63;;
65077;SDS011;51672;51.230;-2.322;2023-02-04T22:32:50;18.13;;;5.13;;
65077;SDS011;51672;51.230;-2.322;2023-02-04T22:36:34;13.73;;;5.72;;
65077;SDS011;51672;51.230;-2.322;2023-02-04T22:40:21;11.77;;;4.93;;
65077;SDS011;51672;51.230;-2.322;2023-02-04T22:44:03;14.52;;;5.05;;
65077;SDS011;51672;51.230;-2.322;2023-02-04T22:47:47;11.80;;;4.57;;
65077;SDS011;51672;51.230;-2.322;2023-02-04T22:51:32;12.95;;;5.40;;
65077;SDS011;51672;51.230;-2.322;2023-02-04T22:55:18;16.40;;;5.30;;
65077;SDS011;51672;51.230;-2.322;2023-02-04T22:59:04;13.00;;;5.17;;
65077;SDS011;51672;51.230;-2.322;2023-02-04T23:02:51;12.68;;;5.53;;
65077;SDS011;51672;51.230;-2.322;2023-02-04T23:06:34;14.60;;;5.10;;
65077;SDS011;51672;51.230;-2.322;2023-02-04T23:10:18;14.27;;;5.30;;
65077;SDS011;51672;51.230;-2.322;2023-02-04T23:14:00;14.45;;;4.93;;
65077;SDS011;51672;51.230;-2.322;2023-02-04T23:17:51;16.23;;;5.63;;
65077;SDS011;51672;51.230;-2.322;2023-02-04T23:21:38;14.10;;;5.47;;
65077;SDS011;51672;51.230;-2.322;2023-02-04T23:25:21;15.60;;;6.13;;
65077;SDS011;51672;51.230;-2.322;2023-02-04T23:29:03;15.00;;;5.85;;
65077;SDS011;51672;51.230;-2.322;2023-02-04T23:32:50;15.30;;;5.75;;
65077;SDS011;51672;51.230;-2.322;2023-02-04T23:36:39;16.00;;;6.03;;
65077;SDS011;51672;51.230;-2.322;2023-02-04T23:40:29;19.33;;;5.88;;
65077;SDS011;51672;51.230;-2.322;2023-02-04T23:44:12;14.75;;;5.25;;
65077;SDS011;51672;51.230;-2.322;2023-02-04T23:47:56;17.60;;;6.20;;
65077;SDS011;51672;51.230;-2.322;2023-02-04T23:51:42;17.27;;;5.70;;
65077;SDS011;51672;51.230;-2.322;2023-02-04T23:55:25;15.98;;;6.13;;
65077;SDS011;51672;51.230;-2.322;2023-02-04T23:59:09;18.38;;;6.18;;
